Time;durP1;ratioP1;P1;durP2;ratioP2;P2;SDS_P1;SDS_P2;PMS_P1;PMS_P2;Temp;Humidity;BMP_temperature;BMP_pressure;BME280_temperature;BME280_humidity;BME280_pressure;Samples;Min_cycle;Max_cycle;Signal;HPM_P1;HPM_P2
2023/09/30 00:00:14;;;;;;;14.95;5.20;;;11.00;99.90;;;;;;5021002;28;20037;-68
2023/09/30 00:02:40;;;;;;;17.73;4.78;;;11.00;99.90;;;;;;5023233;28;20044;-69
2023/09/30 00:05:06;;;;;;;19.13;4.60;;;10.90;99.90;;;;;;5028594;28;20046;-69
2023/09/30 00:07:34;;;;;;;16.30;4.95;;;10.90;99.90;;;;;;5016784;28;20072;-69
2023/09/30 00:10:00;;;;;;;16.10;4.88;;;10.90;99.90;;;;;;5020458;28;20044;-67
2023/09/30 00:12:26;;;;;;;15.32;5.10;;;10.90;99.90;;;;;;5021788;28;20048;-67
2023/09/30 00:14:53;;;;;;;18.40;5.05;;;11.00;99.90;;;;;;4995516;28;20038;-67
2023/09/30 00:17:19;;;;;;;19.17;5.03;;;10.90;99.90;;;;;;5015133;28;20042;-67
2023/09/30 00:19:44;;;;;;;18.67;5.40;;;10.90;99.90;;;;;;5024958;28;20312;-67
2023/09/30 00:22:10;;;;;;;20.52;5.55;;;10.90;99.90;;;;;;5023695;28;20033;-67
2023/09/30 00:24:36;;;;;;;17.85;5.65;;;10.90;99.90;;;;;;5013110;28;20108;-67
2023/09/30 00:27:01;;;;;;;19.25;4.88;;;10.90;99.90;;;;;;5020001;28;20459;-67
2023/09/30 00:29:27;;;;;;;16.15;5.38;;;10.90;99.90;;;;;;5021279;28;20112;-68
2023/09/30 00:31:52;;;;;;;22.83;5.13;;;10.90;99.90;;;;;;5015055;28;20034;-67
2023/09/30 00:34:18;;;;;;;22.90;5.55;;;10.90;99.90;;;;;;5028660;28;20048;-67
2023/09/30 00:36:43;;;;;;;23.05;4.90;;;10.80;99.90;;;;;;5018815;28;20033;-68
2023/09/30 00:39:09;;;;;;;22.67;5.65;;;11.00;99.90;;;;;;5011161;28;20041;-68
2023/09/30 00:41:36;;;;;;;18.65;5.18;;;10.90;99.90;;;;;;5023121;28;20412;-67
2023/09/30 00:44:02;;;;;;;20.42;5.55;;;10.90;99.90;;;;;;5015739;28;20046;-67
2023/09/30 00:46:32;;;;;;;20.13;5.03;;;10.90;99.90;;;;;;5012534;28;20038;-67
2023/09/30 00:48:59;;;;;;;20.42;5.13;;;10.90;99.90;;;;;;5011260;28;20034;-68
2023/09/30 00:51:25;;;;;;;20.00;5.05;;;10.90;99.90;;;;;;5015559;28;20056;-67
2023/09/30 00:53:52;;;;;;;15.02;4.90;;;10.90;99.90;;;;;;5023808;28;20041;-68
2023/09/30 00:56:19;;;;;;;17.20;4.97;;;10.90;99.90;;;;;;5032113;28;20037;-67
2023/09/30 00:58:47;;;;;;;23.45;5.55;;;10.90;99.90;;;;;;5022416;28;20080;-67
2023/09/30 01:01:13;;;;;;;18.00;5.20;;;10.90;99.90;;;;;;5026980;28;20055;-67
2023/09/30 01:03:39;;;;;;;18.60;5.35;;;10.90;99.90;;;;;;5019602;28;20034;-67
2023/09/30 01:06:04;;;;;;;18.35;5.70;;;10.90;99.90;;;;;;5004883;28;20484;-69
2023/09/30 01:08:32;;;;;;;19.52;4.88;;;10.80;99.90;;;;;;5014398;28;20060;-69
2023/09/30 01:10:58;;;;;;;24.40;5.43;;;10.90;99.90;;;;;;5005771;28;20045;-69
2023/09/30 01:13:31;;;;;;;21.00;5.20;;;10.90;99.90;;;;;;5022112;28;20076;-69
2023/09/30 01:15:56;;;;;;;22.15;5.40;;;10.90;99.90;;;;;;4997736;28;20133;-69
2023/09/30 01:18:22;;;;;;;20.00;4.97;;;10.90;99.90;;;;;;5022225;28;20042;-68
2023/09/30 01:20:49;;;;;;;17.23;5.88;;;10.90;99.90;;;;;;5032087;28;20129;-69
2023/09/30 01:23:15;;;;;;;16.90;5.18;;;11.00;99.90;;;;;;5024448;28;20042;-69
2023/09/30 01:25:43;;;;;;;17.60;5.65;;;11.00;99.90;;;;;;4997162;28;20116;-69
2023/09/30 01:28:10;;;;;;;19.05;5.28;;;11.00;99.90;;;;;;5011814;28;20099;-69
2023/09/30 01:30:35;;;;;;;16.35;5.97;;;11.00;99.90;;;;;;5010155;28;20038;-69
2023/09/30 01:33:01;;;;;;;11.35;5.18;;;11.00;99.90;;;;;;5026913;28;20045;-69
2023/09/30 01:35:27;;;;;;;23.42;5.43;;;11.10;99.90;;;;;;5019379;28;20077;-69
2023/09/30 01:37:52;;;;;;;21.83;5.90;;;11.10;99.90;;;;;;5011348;28;20057;-69
2023/09/30 01:40:18;;;;;;;16.92;5.40;;;11.10;99.90;;;;;;5011961;28;20038;-69
2023/09/30 01:42:43;;;;;;;22.58;6.07;;;11.10;99.90;;;;;;5031450;28;20026;-69
2023/09/30 01:45:10;;;;;;;21.17;6.22;;;11.10;99.90;;;;;;5014455;28;20088;-69
2023/09/30 01:47:35;;;;;;;19.08;6.20;;;11.10;99.90;;;;;;5005228;28;20041;-69
2023/09/30 01:50:01;;;;;;;20.20;6.72;;;11.10;99.90;;;;;;5027599;28;20462;-69
2023/09/30 01:52:27;;;;;;;20.95;5.82;;;11.10;99.90;;;;;;5002984;28;20092;-69
2023/09/30 01:54:54;;;;;;;21.92;6.07;;;11.10;99.90;;;;;;5010333;28;20583;-69
2023/09/30 01:57:19;;;;;;;17.48;5.93;;;11.00;99.90;;;;;;5028926;28;20049;-67
2023/09/30 01:59:45;;;;;;;21.42;6.03;;;11.00;99.90;;;;;;5023586;28;20090;-69
2023/09/30 02:02:10;;;;;;;19.00;5.85;;;11.00;99.90;;;;;;5031687;28;20034;-69
2023/09/30 02:04:36;;;;;;;22.88;5.53;;;11.00;99.90;;;;;;5027253;28;20041;-69
2023/09/30 02:07:02;;;;;;;17.35;6.07;;;11.00;99.90;;;;;;5026666;28;20045;-68
2023/09/30 02:09:28;;;;;;;22.02;6.95;;;11.00;99.90;;;;;;5022451;28;20034;-68
2023/09/30 02:11:54;;;;;;;18.88;6.93;;;11.00;99.90;;;;;;5031709;28;20037;-69
2023/09/30 02:14:20;;;;;;;20.42;6.72;;;11.00;99.90;;;;;;5027600;28;20080;-69
2023/09/30 02:16:46;;;;;;;22.70;7.47;;;11.00;99.90;;;;;;5025853;28;20111;-69
2023/09/30 02:19:12;;;;;;;20.67;6.85;;;11.00;99.90;;;;;;5023406;28;20052;-69
2023/09/30 02:21:38;;;;;;;32.22;7.63;;;11.00;99.90;;;;;;5017816;28;20042;-69
2023/09/30 02:24:06;;;;;;;19.35;6.82;;;11.00;99.90;;;;;;5020881;28;20043;-68
2023/09/30 02:26:32;;;;;;;25.83;6.97;;;11.00;99.90;;;;;;5019600;28;20038;-69
2023/09/30 02:28:58;;;;;;;20.05;6.38;;;11.00;99.90;;;;;;5008673;28;20054;-68
2023/09/30 02:31:24;;;;;;;19.85;6.68;;;10.90;99.90;;;;;;5031561;28;20045;-69
2023/09/30 02:33:49;;;;;;;19.23;6.60;;;10.90;99.90;;;;;;5023792;28;20068;-69
2023/09/30 02:36:15;;;;;;;25.20;6.70;;;11.00;99.90;;;;;;5014265;28;20049;-69
2023/09/30 02:38:41;;;;;;;19.92;7.18;;;11.00;99.90;;;;;;5025631;28;20120;-69
2023/09/30 02:41:07;;;;;;;19.50;6.68;;;11.00;99.90;;;;;;5026290;28;20042;-69
2023/09/30 02:43:32;;;;;;;17.17;6.95;;;11.00;99.90;;;;;;5036019;28;20117;-69
2023/09/30 02:45:58;;;;;;;22.92;7.05;;;11.00;99.90;;;;;;5035281;28;20033;-69
2023/09/30 02:48:24;;;;;;;21.45;7.53;;;11.00;99.90;;;;;;5019581;28;20050;-69
2023/09/30 02:50:49;;;;;;;20.83;6.50;;;11.00;99.90;;;;;;5022610;28;20117;-70
2023/09/30 02:53:15;;;;;;;21.63;6.70;;;11.00;99.90;;;;;;4999327;28;20042;-69
2023/09/30 02:55:42;;;;;;;23.02;6.57;;;11.00;99.90;;;;;;5019862;28;20410;-69
2023/09/30 02:58:08;;;;;;;24.15;6.35;;;11.00;99.90;;;;;;5025871;28;20041;-69
2023/09/30 03:00:35;;;;;;;18.00;6.25;;;11.00;99.90;;;;;;5016961;28;20033;-69
2023/09/30 03:03:02;;;;;;;24.60;6.85;;;11.00;99.90;;;;;;4999842;28;20445;-68
2023/09/30 03:05:30;;;;;;;20.00;6.18;;;11.00;99.90;;;;;;5023495;28;20500;-68
2023/09/30 03:07:56;;;;;;;25.45;7.05;;;10.90;99.90;;;;;;5029533;28;20606;-69
2023/09/30 03:10:23;;;;;;;18.50;6.00;;;10.90;99.90;;;;;;5004694;28;20128;-69
2023/09/30 03:12:55;;;;;;;26.17;6.55;;;10.90;99.90;;;;;;5010124;28;20045;-69
2023/09/30 03:15:22;;;;;;;21.77;6.50;;;10.90;99.90;;;;;;5023507;28;20103;-69
2023/09/30 03:17:48;;;;;;;19.27;6.63;;;10.90;99.90;;;;;;5014727;28;20488;-69
2023/09/30 03:20:18;;;;;;;15.35;7.13;;;10.90;99.90;;;;;;5013364;28;20033;-69
2023/09/30 03:22:46;;;;;;;15.90;6.78;;;10.90;99.90;;;;;;5026332;28;20439;-69
2023/09/30 03:25:15;;;;;;;17.92;6.88;;;10.90;99.90;;;;;;5025999;28;20472;-69
2023/09/30 03:27:40;;;;;;;22.25;7.18;;;10.90;99.90;;;;;;5028223;28;20133;-69
2023/09/30 03:30:08;;;;;;;27.02;6.68;;;10.90;99.90;;;;;;5011915;28;20120;-69
2023/09/30 03:32:37;;;;;;;19.92;6.10;;;10.80;99.90;;;;;;5025928;28;20038;-68
2023/09/30 03:35:07;;;;;;;20.23;6.72;;;10.80;99.90;;;;;;5029838;28;20045;-69
2023/09/30 03:37:32;;;;;;;18.83;6.68;;;10.80;99.90;;;;;;5013427;28;20044;-69
2023/09/30 03:39:58;;;;;;;18.40;7.15;;;10.80;99.90;;;;;;5019219;28;20041;-69
2023/09/30 03:42:24;;;;;;;21.45;6.90;;;10.80;99.90;;;;;;5015716;28;20060;-69
2023/09/30 03:44:49;;;;;;;19.80;6.53;;;10.80;99.90;;;;;;5019309;28;20030;-69
2023/09/30 03:47:16;;;;;;;19.98;6.65;;;10.80;99.90;;;;;;5017652;28;20469;-69
2023/09/30 03:49:42;;;;;;;18.35;7.00;;;10.80;99.90;;;;;;5025247;28;20063;-69
2023/09/30 03:52:09;;;;;;;21.90;6.95;;;10.70;99.90;;;;;;5028097;28;20237;-68
2023/09/30 03:54:35;;;;;;;20.63;6.93;;;10.70;99.90;;;;;;5012434;28;20092;-69
2023/09/30 03:57:00;;;;;;;22.42;7.45;;;10.70;99.90;;;;;;5011862;28;20034;-68
2023/09/30 03:59:27;;;;;;;20.55;7.30;;;10.70;99.90;;;;;;5013556;28;20099;-69
2023/09/30 04:01:53;;;;;;;17.42;6.88;;;10.60;99.90;;;;;;5008586;28;20108;-69
2023/09/30 04:04:22;;;;;;;19.73;7.47;;;10.60;99.90;;;;;;5028160;28;20526;-68
2023/09/30 04:06:47;;;;;;;18.67;6.57;;;10.60;99.90;;;;;;5018223;28;20053;-69
2023/09/30 04:09:13;;;;;;;22.10;6.68;;;10.50;99.90;;;;;;5011365;28;20046;-69
2023/09/30 04:11:42;;;;;;;18.45;6.82;;;10.50;99.90;;;;;;5025643;28;20048;-69
2023/09/30 04:14:08;;;;;;;17.35;6.50;;;10.50;99.90;;;;;;5022138;28;20116;-69
2023/09/30 04:16:35;;;;;;;18.52;7.18;;;10.50;99.90;;;;;;5028397;28;20040;-69
2023/09/30 04:19:01;;;;;;;21.70;7.30;;;10.60;99.90;;;;;;5017945;28;20497;-69
2023/09/30 04:21:28;;;;;;;21.10;7.65;;;10.60;99.90;;;;;;5016633;28;20053;-69
2023/09/30 04:23:54;;;;;;;23.95;7.90;;;10.70;99.90;;;;;;5015138;28;20046;-69
2023/09/30 04:26:19;;;;;;;24.00;7.38;;;10.70;99.90;;;;;;5015099;28;20044;-69
2023/09/30 04:28:45;;;;;;;20.67;7.93;;;10.70;99.90;;;;;;5010202;28;20080;-68
2023/09/30 04:31:13;;;;;;;19.27;7.80;;;10.70;99.90;;;;;;5020274;28;20130;-69
2023/09/30 04:33:39;;;;;;;23.30;7.65;;;10.70;99.90;;;;;;5023911;28;20048;-69
2023/09/30 04:36:08;;;;;;;16.70;8.10;;;10.70;99.90;;;;;;5024219;28;20096;-69
2023/09/30 04:38:34;;;;;;;20.65;7.60;;;10.70;99.90;;;;;;5005952;28;20060;-69
2023/09/30 04:41:00;;;;;;;23.40;8.18;;;10.80;99.90;;;;;;5031602;28;20507;-68
2023/09/30 04:43:29;;;;;;;24.13;8.73;;;10.80;99.90;;;;;;5025858;28;20034;-69
2023/09/30 04:45:56;;;;;;;24.70;8.90;;;10.80;99.90;;;;;;5020659;28;20034;-68
2023/09/30 04:48:23;;;;;;;22.20;8.82;;;10.90;99.90;;;;;;5011253;28;20084;-69
2023/09/30 04:50:48;;;;;;;29.77;9.57;;;10.90;99.90;;;;;;5010163;28;20563;-69
2023/09/30 04:53:16;;;;;;;20.23;9.13;;;10.90;99.90;;;;;;5015384;28;20045;-68
2023/09/30 04:55:42;;;;;;;21.20;9.02;;;10.90;99.90;;;;;;5011566;28;20033;-69
2023/09/30 04:58:08;;;;;;;22.35;8.95;;;10.90;99.90;;;;;;5009649;28;20038;-67
2023/09/30 05:00:34;;;;;;;25.50;9.23;;;10.90;99.90;;;;;;5019907;28;20603;-67
2023/09/30 05:03:00;;;;;;;26.63;9.82;;;10.90;99.90;;;;;;5009800;28;20053;-69
2023/09/30 05:05:26;;;;;;;21.52;8.88;;;10.90;99.90;;;;;;5018389;28;20056;-67
2023/09/30 05:07:52;;;;;;;25.33;9.50;;;10.90;99.90;;;;;;5022416;28;20099;-69
2023/09/30 05:10:19;;;;;;;21.95;9.32;;;10.90;99.90;;;;;;5025350;28;20102;-69
2023/09/30 05:12:47;;;;;;;21.25;9.05;;;10.90;99.90;;;;;;5011026;28;20049;-69
2023/09/30 05:15:15;;;;;;;24.08;9.77;;;10.90;99.90;;;;;;5012334;28;20082;-70
2023/09/30 05:17:43;;;;;;;20.75;9.65;;;10.80;99.90;;;;;;5014389;28;20081;-69
2023/09/30 05:20:10;;;;;;;20.02;9.57;;;10.80;99.90;;;;;;5012810;28;20042;-69
2023/09/30 05:22:36;;;;;;;22.60;9.85;;;10.80;99.90;;;;;;5026450;28;20408;-68
2023/09/30 05:25:02;;;;;;;18.17;9.40;;;10.80;99.90;;;;;;5016355;28;20507;-71
2023/09/30 05:27:28;;;;;;;23.27;9.75;;;10.70;99.90;;;;;;5022550;28;20046;-71
2023/09/30 05:29:54;;;;;;;23.08;9.57;;;10.80;99.90;;;;;;5008290;28;20042;-70
2023/09/30 05:32:22;;;;;;;24.73;9.50;;;10.80;99.90;;;;;;5008013;28;20719;-70
2023/09/30 05:34:48;;;;;;;18.77;9.48;;;10.70;99.90;;;;;;5003060;28;20049;-70
2023/09/30 05:37:13;;;;;;;29.92;9.95;;;10.70;99.90;;;;;;5021429;28;20060;-70
2023/09/30 05:39:39;;;;;;;20.83;10.27;;;10.60;99.90;;;;;;5003851;28;20048;-70
2023/09/30 05:42:06;;;;;;;23.55;10.27;;;10.60;99.90;;;;;;5014763;28;20560;-70
2023/09/30 05:44:32;;;;;;;22.33;10.45;;;10.60;99.90;;;;;;5002252;28;20115;-70
2023/09/30 05:46:59;;;;;;;27.20;10.43;;;10.60;99.90;;;;;;5016078;28;20033;-70
2023/09/30 05:49:25;;;;;;;24.95;10.20;;;10.60;99.90;;;;;;5016505;28;20890;-70
2023/09/30 05:51:51;;;;;;;21.75;9.82;;;10.50;99.90;;;;;;5008369;28;20117;-70
2023/09/30 05:54:16;;;;;;;19.55;9.88;;;10.50;99.90;;;;;;5008147;28;20408;-70
2023/09/30 05:56:45;;;;;;;25.40;10.77;;;10.50;99.90;;;;;;5007847;28;20385;-70
2023/09/30 05:59:11;;;;;;;26.00;10.00;;;10.50;99.90;;;;;;5013329;28;20095;-71
2023/09/30 06:01:37;;;;;;;22.60;10.77;;;10.40;99.90;;;;;;5009422;28;20041;-71
2023/09/30 06:04:04;;;;;;;26.20;10.50;;;10.40;99.90;;;;;;5027352;28;20045;-71
2023/09/30 06:06:30;;;;;;;19.77;9.68;;;10.40;99.90;;;;;;5024070;28;20042;-71
2023/09/30 06:08:58;;;;;;;24.98;9.85;;;10.40;99.90;;;;;;5000207;28;20115;-70
2023/09/30 06:11:24;;;;;;;24.10;10.43;;;10.50;99.90;;;;;;5012910;28;20045;-71
2023/09/30 06:13:58;;;;;;;26.00;10.75;;;10.50;99.90;;;;;;4984085;28;20041;-70
2023/09/30 06:16:26;;;;;;;27.38;10.07;;;10.50;99.90;;;;;;5006061;28;20034;-71
2023/09/30 06:18:52;;;;;;;22.83;9.55;;;10.50;99.90;;;;;;4990788;28;20041;-69
2023/09/30 06:21:20;;;;;;;23.60;10.70;;;10.60;99.90;;;;;;5018525;28;20033;-69
2023/09/30 06:23:51;;;;;;;19.70;9.73;;;10.50;99.90;;;;;;5006847;28;20037;-69
2023/09/30 06:26:17;;;;;;;21.42;10.00;;;10.60;99.90;;;;;;5029988;28;20041;-69
2023/09/30 06:28:43;;;;;;;26.52;10.75;;;10.60;99.90;;;;;;5012923;28;20037;-69
2023/09/30 06:31:09;;;;;;;27.30;10.82;;;10.70;99.90;;;;;;5010128;28;20038;-70
2023/09/30 06:33:39;;;;;;;25.90;11.07;;;10.80;99.90;;;;;;5010626;28;20038;-69
2023/09/30 06:36:09;;;;;;;24.55;10.50;;;10.90;99.90;;;;;;5010644;28;20041;-69
2023/09/30 06:38:36;;;;;;;25.65;11.30;;;10.90;99.90;;;;;;5009829;28;20366;-67
2023/09/30 06:41:02;;;;;;;25.95;11.90;;;10.90;99.90;;;;;;5020138;28;20099;-70
2023/09/30 06:43:28;;;;;;;32.25;11.77;;;11.00;99.90;;;;;;5010839;28;20037;-69
2023/09/30 06:45:54;;;;;;;24.65;11.73;;;11.00;99.90;;;;;;5012427;28;20084;-68
2023/09/30 06:48:21;;;;;;;30.63;11.88;;;11.10;99.90;;;;;;5019869;28;20050;-68
2023/09/30 06:50:48;;;;;;;26.38;11.35;;;11.10;99.90;;;;;;5026155;28;20046;-68
2023/09/30 06:53:15;;;;;;;29.15;11.70;;;11.20;99.90;;;;;;5015448;28;20042;-67
2023/09/30 06:55:45;;;;;;;27.40;11.82;;;11.30;99.90;;;;;;5015401;28;20049;-67
2023/09/30 06:58:11;;;;;;;25.85;11.95;;;11.40;99.90;;;;;;5014936;28;20078;-68
2023/09/30 07:00:45;;;;;;;26.38;13.05;;;11.50;99.90;;;;;;5015063;28;20393;-69
2023/09/30 07:03:11;;;;;;;27.35;11.95;;;11.60;99.90;;;;;;5024964;28;20044;-68
2023/09/30 07:05:37;;;;;;;31.40;12.40;;;11.70;99.90;;;;;;5020351;28;20042;-69
2023/09/30 07:08:03;;;;;;;29.55;12.93;;;11.70;99.90;;;;;;5014404;28;20037;-69
2023/09/30 07:10:29;;;;;;;25.25;12.82;;;11.80;99.90;;;;;;5013648;28;20100;-68
2023/09/30 07:12:55;;;;;;;36.05;13.93;;;11.90;99.90;;;;;;5006166;28;20638;-65
2023/09/30 07:15:21;;;;;;;29.67;13.77;;;12.10;99.90;;;;;;5017485;28;20041;-68
2023/09/30 07:17:47;;;;;;;50.72;15.35;;;12.20;99.90;;;;;;5024719;28;20042;-68
2023/09/30 07:20:14;;;;;;;36.75;15.68;;;12.30;99.90;;;;;;5024277;28;20048;-68
2023/09/30 07:22:40;;;;;;;34.25;14.98;;;12.40;99.90;;;;;;5021595;28;20049;-67
2023/09/30 07:25:07;;;;;;;35.65;15.35;;;12.50;99.90;;;;;;5015149;28;20492;-68
2023/09/30 07:27:32;;;;;;;36.80;15.10;;;12.60;99.90;;;;;;5013062;28;20033;-68
2023/09/30 07:29:59;;;;;;;31.13;14.50;;;12.60;99.90;;;;;;5011460;28;20038;-70
2023/09/30 07:32:25;;;;;;;30.48;14.38;;;12.70;99.90;;;;;;5013067;28;20041;-70
2023/09/30 07:34:51;;;;;;;34.50;16.45;;;12.70;99.90;;;;;;5016455;28;20037;-69
2023/09/30 07:37:18;;;;;;;33.10;14.60;;;12.80;99.90;;;;;;5029595;28;20030;-70
2023/09/30 07:39:44;;;;;;;33.03;15.90;;;12.90;99.90;;;;;;5022787;28;20037;-70
2023/09/30 07:42:10;;;;;;;34.75;15.80;;;13.10;99.90;;;;;;5013780;28;20042;-70
2023/09/30 07:44:37;;;;;;;28.13;14.23;;;13.20;99.90;;;;;;5032116;28;20144;-69
2023/09/30 07:47:03;;;;;;;30.23;15.15;;;13.30;99.90;;;;;;5003949;28;20127;-68
2023/09/30 07:49:29;;;;;;;29.40;15.15;;;13.50;99.90;;;;;;5018720;28;20092;-69
2023/09/30 07:51:55;;;;;;;30.67;14.45;;;13.60;99.90;;;;;;5021594;28;20037;-70
2023/09/30 07:54:21;;;;;;;32.22;14.13;;;13.70;99.90;;;;;;5009672;28;20037;-70
2023/09/30 07:56:46;;;;;;;31.13;15.50;;;13.90;99.90;;;;;;5012623;28;20034;-69
2023/09/30 07:59:13;;;;;;;33.60;14.48;;;14.00;99.90;;;;;;5013346;28;20038;-69
2023/09/30 08:01:39;;;;;;;32.60;15.35;;;14.00;99.90;;;;;;5018314;28;20029;-69
2023/09/30 08:04:04;;;;;;;29.17;15.55;;;14.10;99.90;;;;;;5034522;28;20045;-69
2023/09/30 08:06:31;;;;;;;27.83;14.40;;;14.10;99.90;;;;;;5034342;28;20112;-69
2023/09/30 08:08:56;;;;;;;25.83;13.73;;;14.10;99.90;;;;;;5017843;28;20037;-69
2023/09/30 08:11:22;;;;;;;28.05;13.45;;;14.10;99.90;;;;;;5016776;28;20045;-70
2023/09/30 08:13:47;;;;;;;26.83;14.38;;;14.10;99.90;;;;;;5025501;28;20121;-69
2023/09/30 08:16:13;;;;;;;29.05;14.15;;;14.20;99.90;;;;;;5019076;28;20034;-68
2023/09/30 08:18:39;;;;;;;31.08;14.40;;;14.40;99.90;;;;;;5017181;28;20125;-69
2023/09/30 08:21:04;;;;;;;26.60;14.35;;;14.40;99.90;;;;;;5020858;28;20041;-70
2023/09/30 08:23:31;;;;;;;26.45;13.48;;;14.50;99.90;;;;;;5007484;28;20045;-70
2023/09/30 08:25:59;;;;;;;27.27;14.10;;;14.50;99.90;;;;;;5016706;28;20064;-69
2023/09/30 08:28:25;;;;;;;32.78;14.27;;;14.50;99.90;;;;;;5022613;28;20042;-70
2023/09/30 08:30:54;;;;;;;27.52;14.43;;;14.50;99.90;;;;;;5014358;28;20042;-70
2023/09/30 08:33:20;;;;;;;29.45;14.70;;;14.50;99.90;;;;;;5016150;28;20054;-69
2023/09/30 08:35:45;;;;;;;25.23;14.05;;;14.50;99.90;;;;;;5026201;28;20045;-70
2023/09/30 08:38:11;;;;;;;24.67;14.13;;;14.40;99.90;;;;;;5015290;28;20045;-70
2023/09/30 08:40:38;;;;;;;30.73;15.07;;;14.50;99.90;;;;;;5024611;28;20068;-70
2023/09/30 08:43:04;;;;;;;28.02;14.77;;;14.50;99.90;;;;;;5033128;28;20626;-69
2023/09/30 08:45:35;;;;;;;26.42;14.23;;;14.50;99.90;;;;;;5025068;28;20053;-68
2023/09/30 08:48:05;;;;;;;25.70;14.23;;;14.50;99.90;;;;;;5034453;28;20060;-70
2023/09/30 08:50:32;;;;;;;28.20;14.32;;;14.50;99.90;;;;;;5021155;28;20045;-68
2023/09/30 08:52:59;;;;;;;29.48;14.05;;;14.50;99.90;;;;;;5033473;28;20124;-67
2023/09/30 08:55:27;;;;;;;25.58;14.38;;;14.60;99.90;;;;;;5002212;28;20080;-68
2023/09/30 08:57:54;;;;;;;26.60;14.82;;;14.70;99.90;;;;;;5013421;28;20564;-69
2023/09/30 09:00:20;;;;;;;29.98;16.45;;;14.80;99.90;;;;;;5023565;28;20041;-68
2023/09/30 09:02:46;;;;;;;27.75;14.85;;;14.90;99.90;;;;;;5009521;28;20124;-69
2023/09/30 09:05:12;;;;;;;27.77;14.57;;;15.00;99.90;;;;;;5020193;28;20145;-69
2023/09/30 09:07:38;;;;;;;25.45;14.20;;;15.10;99.90;;;;;;5018434;28;20112;-68
2023/09/30 09:10:09;;;;;;;29.60;15.18;;;15.10;99.90;;;;;;5011414;28;20563;-68
2023/09/30 09:12:38;;;;;;;29.10;14.90;;;15.30;99.90;;;;;;5018444;28;20047;-68
2023/09/30 09:15:08;;;;;;;25.40;13.93;;;15.30;99.90;;;;;;5022970;28;20507;-67
2023/09/30 09:17:45;;;;;;;25.08;13.77;;;15.40;99.90;;;;;;5010534;28;20096;-69
2023/09/30 09:20:21;;;;;;;27.92;13.65;;;15.40;99.90;;;;;;4999763;28;20505;-67
2023/09/30 09:22:50;;;;;;;26.15;13.88;;;15.50;99.90;;;;;;5012687;28;20197;-69
2023/09/30 09:25:16;;;;;;;23.50;13.95;;;15.60;99.90;;;;;;5022771;28;20037;-67
2023/09/30 09:27:42;;;;;;;25.95;13.40;;;15.60;99.90;;;;;;4998424;28;20049;-68
2023/09/30 09:30:24;;;;;;;28.95;14.10;;;15.60;99.90;;;;;;5010024;28;20045;-68
2023/09/30 09:33:07;;;;;;;24.15;13.43;;;15.70;99.90;;;;;;5021094;28;20380;-68
2023/09/30 09:35:34;;;;;;;24.33;12.55;;;15.80;99.90;;;;;;5009150;28;20071;-69
2023/09/30 09:38:03;;;;;;;21.27;13.15;;;15.80;99.90;;;;;;5002564;28;20084;-68
2023/09/30 09:40:36;;;;;;;23.63;13.38;;;15.90;99.90;;;;;;5013046;28;20069;-68
2023/09/30 09:43:05;;;;;;;23.38;13.15;;;16.00;99.90;;;;;;5024935;28;20038;-69
2023/09/30 09:45:33;;;;;;;21.55;11.82;;;16.10;99.90;;;;;;5009201;28;20501;-69
2023/09/30 09:47:59;;;;;;;24.45;12.20;;;16.10;99.90;;;;;;5023481;28;20088;-69
2023/09/30 09:50:25;;;;;;;25.25;12.63;;;16.30;99.90;;;;;;5021373;28;20069;-69
2023/09/30 09:52:55;;;;;;;27.33;12.93;;;16.30;99.90;;;;;;5025998;28;20037;-69
2023/09/30 09:55:24;;;;;;;26.98;12.75;;;16.40;99.90;;;;;;5020121;28;20084;-68
2023/09/30 09:57:50;;;;;;;24.98;12.32;;;16.50;99.90;;;;;;5024332;28;20099;-68
2023/09/30 10:00:24;;;;;;;21.20;11.57;;;16.60;99.90;;;;;;5022872;28;20037;-68
2023/09/30 10:02:51;;;;;;;24.85;11.20;;;16.70;99.90;;;;;;5014602;28;20074;-68
2023/09/30 10:05:18;;;;;;;22.92;10.93;;;16.80;99.90;;;;;;5010866;28;20049;-69
2023/09/30 10:08:02;;;;;;;23.50;12.35;;;16.80;99.90;;;;;;5023976;28;20041;-68
2023/09/30 10:10:28;;;;;;;21.00;11.25;;;16.90;99.90;;;;;;5017973;28;20033;-68
2023/09/30 10:12:54;;;;;;;20.83;12.02;;;16.90;99.90;;;;;;5021364;28;20033;-67
2023/09/30 10:15:25;;;;;;;19.30;11.20;;;17.00;99.90;;;;;;5021806;28;20559;-67
2023/09/30 10:18:11;;;;;;;22.92;11.82;;;17.00;99.90;;;;;;5030891;28;20111;-67
2023/09/30 10:20:44;;;;;;;25.02;10.40;;;17.10;99.90;;;;;;5003503;28;20042;-66
2023/09/30 10:23:32;;;;;;;20.70;11.13;;;17.20;99.90;;;;;;5013459;28;20448;-67
2023/09/30 10:26:13;;;;;;;22.90;11.32;;;17.30;99.90;;;;;;5011400;28;20052;-66
2023/09/30 10:28:49;;;;;;;23.17;11.88;;;17.30;99.90;;;;;;5017127;28;20057;-66
2023/09/30 10:31:24;;;;;;;19.70;10.65;;;17.40;99.90;;;;;;5022467;28;20530;-66
2023/09/30 10:34:02;;;;;;;17.30;10.02;;;17.50;99.90;;;;;;5023132;28;20037;-66
2023/09/30 10:36:32;;;;;;;22.55;10.77;;;17.50;99.90;;;;;;5011739;28;20459;-66
2023/09/30 10:38:59;;;;;;;22.45;10.82;;;17.70;99.90;;;;;;5018045;28;20147;-67
2023/09/30 10:41:40;;;;;;;25.83;10.77;;;17.70;99.90;;;;;;5024307;28;20033;-68
2023/09/30 10:44:25;;;;;;;13.70;7.78;;;17.90;99.90;;;;;;5025595;28;20049;-66
2023/09/30 10:46:51;;;;;;;14.95;7.07;;;17.90;99.90;;;;;;5005258;28;20050;-68
2023/09/30 10:49:34;;;;;;;14.35;6.53;;;18.00;99.90;;;;;;5015106;28;20050;-68
2023/09/30 10:52:00;;;;;;;17.13;7.55;;;18.00;99.90;;;;;;5012408;28;20041;-67
2023/09/30 10:54:31;;;;;;;13.95;6.20;;;18.00;99.90;;;;;;5001895;28;20497;-66
2023/09/30 10:56:59;;;;;;;13.98;5.93;;;18.10;99.90;;;;;;5010887;28;20607;-66
2023/09/30 10:59:30;;;;;;;15.60;6.63;;;18.20;99.90;;;;;;5013619;28;20156;-67
2023/09/30 11:01:55;;;;;;;;;;;18.30;99.90;;;;;;5014567;28;20037;-70
2023/09/30 11:04:22;;;;;;;16.98;5.57;;;18.40;99.90;;;;;;5019112;28;19921;-67
2023/09/30 11:06:51;;;;;;;11.50;4.97;;;18.40;99.90;;;;;;5024246;28;20121;-67
2023/09/30 11:09:21;;;;;;;11.40;4.72;;;18.50;99.90;;;;;;5018286;28;20049;-68
2023/09/30 11:11:53;;;;;;;8.35;4.28;;;18.50;99.90;;;;;;5012547;28;20084;-67
2023/09/30 11:14:27;;;;;;;9.73;4.15;;;18.50;99.90;;;;;;5017435;28;20041;-67
2023/09/30 11:16:56;;;;;;;14.43;3.90;;;18.60;99.90;;;;;;5015401;28;20562;-67
2023/09/30 11:19:22;;;;;;;10.48;4.07;;;18.60;99.90;;;;;;5021112;28;20061;-66
2023/09/30 11:21:49;;;;;;;12.27;3.80;;;18.60;99.90;;;;;;5009515;28;20067;-69
2023/09/30 11:24:16;;;;;;;8.77;3.00;;;18.70;99.90;;;;;;5024102;28;20040;-66
2023/09/30 11:26:41;;;;;;;7.13;2.95;;;18.70;99.90;;;;;;5022294;28;20041;-66
2023/09/30 11:29:16;;;;;;;11.63;3.65;;;18.70;99.90;;;;;;5018625;28;20045;-68
2023/09/30 11:31:48;;;;;;;6.82;3.20;;;18.70;99.90;;;;;;5010202;28;20049;-66
2023/09/30 11:34:15;;;;;;;9.27;2.95;;;18.70;99.90;;;;;;5022109;28;20041;-66
2023/09/30 11:36:53;;;;;;;12.50;3.03;;;18.80;99.90;;;;;;5021048;28;20041;-69
2023/09/30 11:39:26;;;;;;;9.00;2.40;;;18.90;99.90;;;;;;5016038;28;20069;-68
2023/09/30 11:41:52;;;;;;;10.90;2.90;;;19.00;99.90;;;;;;5010633;28;20111;-68
2023/09/30 11:44:18;;;;;;;9.68;2.40;;;18.90;99.90;;;;;;5011935;28;20113;-65
2023/09/30 11:47:04;;;;;;;7.93;2.25;;;18.70;99.90;;;;;;5028826;28;20048;-66
2023/09/30 11:49:38;;;;;;;9.20;2.72;;;18.60;99.90;;;;;;5017952;28;20090;-66
2023/09/30 11:52:08;;;;;;;8.98;2.45;;;18.70;99.90;;;;;;5025253;28;20046;-67
2023/09/30 11:54:41;;;;;;;10.40;2.30;;;18.70;99.90;;;;;;5021881;28;20488;-67
2023/09/30 11:57:10;;;;;;;10.00;3.00;;;18.70;99.90;;;;;;5023334;28;20077;-67
2023/09/30 11:59:37;;;;;;;5.90;2.30;;;18.70;99.90;;;;;;5020248;28;20049;-69
2023/09/30 12:02:05;;;;;;;5.97;2.10;;;18.70;99.90;;;;;;5017259;28;20683;-68
2023/09/30 12:04:31;;;;;;;8.25;2.30;;;18.70;99.90;;;;;;5018263;28;20037;-69
2023/09/30 12:06:57;;;;;;;9.30;2.08;;;18.90;99.90;;;;;;5020134;28;20029;-70
2023/09/30 12:09:26;;;;;;;6.95;2.20;;;18.90;99.90;;;;;;5015671;28;20057;-70
2023/09/30 12:11:53;;;;;;;8.35;2.20;;;18.90;99.90;;;;;;5000643;28;20045;-69
2023/09/30 12:14:19;;;;;;;8.02;2.28;;;18.80;99.90;;;;;;4996887;28;20049;-69
2023/09/30 12:16:45;;;;;;;8.00;2.42;;;18.70;99.90;;;;;;5022171;28;20527;-70
2023/09/30 12:19:13;;;;;;;7.75;2.40;;;18.60;99.90;;;;;;5002463;28;20172;-71
2023/09/30 12:21:40;;;;;;;7.32;2.42;;;18.70;99.90;;;;;;5018407;28;20044;-70
2023/09/30 12:24:07;;;;;;;9.35;2.40;;;18.90;99.90;;;;;;5003306;28;20069;-68
2023/09/30 12:26:33;;;;;;;8.75;2.25;;;19.10;99.90;;;;;;5002244;28;20196;-70
2023/09/30 12:28:59;;;;;;;9.98;2.30;;;19.10;99.90;;;;;;5010171;28;20554;-68
2023/09/30 12:31:25;;;;;;;9.15;2.55;;;19.00;99.90;;;;;;5019074;28;20045;-68
2023/09/30 12:33:51;;;;;;;8.98;2.60;;;19.00;99.90;;;;;;5019132;28;20396;-68